Time;durP1;ratioP1;P1;durP2;ratioP2;P2;SDS_P1;SDS_P2;PMS_P1;PMS_P2;Temp;Humidity;BMP_temperature;BMP_pressure;BME280_temperature;BME280_humidity;BME280_pressure;Samples;Min_cycle;Max_cycle;Signal;HPM_P1;HPM_P2
2022/09/16 00:01:28;;;;;;;0.20;0.20;;;;;;;14.78;64.87;100521.03;5156313;28;20113;-80
2022/09/16 00:03:59;;;;;;;1.65;1.17;;;;;;;14.86;64.60;100519.81;5177800;28;20134;-83
2022/09/16 00:06:30;;;;;;;0.20;0.20;;;;;;;14.65;65.98;100525.19;5150342;28;20027;-81
2022/09/16 00:09:01;;;;;;;0.20;0.20;;;;;;;14.59;65.97;100526.31;5163218;28;20026;-81
2022/09/16 00:11:34;;;;;;;0.20;0.20;;;;;;;14.67;65.35;100520.69;5189919;28;20085;-81
2022/09/16 00:14:04;;;;;;;0.20;0.20;;;;;;;14.66;65.64;100513.72;5168032;28;20070;-80
2022/09/16 00:16:35;;;;;;;1.95;0.88;;;;;;;14.62;65.66;100517.38;5163771;28;20015;-85
2022/09/16 00:19:09;;;;;;;3.10;0.73;;;;;;;14.67;65.30;100514.56;5169142;28;20042;-81
2022/09/16 00:21:39;;;;;;;0.43;0.43;;;;;;;14.65;64.95;100517.25;5161540;28;20065;-83
2022/09/16 00:24:12;;;;;;;4.85;0.95;;;;;;;14.61;64.93;100515.69;5194232;28;20034;-81
2022/09/16 00:26:43;;;;;;;0.20;0.20;;;;;;;14.64;65.11;100519.03;5163707;28;20538;-84
2022/09/16 00:29:14;;;;;;;0.30;0.30;;;;;;;14.69;64.83;100521.47;5167389;28;20046;-83
2022/09/16 00:31:44;;;;;;;0.70;0.35;;;;;;;14.59;65.78;100520.16;5177314;28;20034;-81
2022/09/16 00:34:15;;;;;;;1.27;1.17;;;;;;;14.65;65.38;100517.25;5155098;28;20030;-80
2022/09/16 00:36:45;;;;;;;0.65;0.65;;;;;;;14.60;65.65;100520.13;5173618;28;20117;-81
2022/09/16 00:39:16;;;;;;;0.20;0.20;;;;;;;14.71;65.40;100519.63;5180993;28;20209;-82
2022/09/16 00:41:47;;;;;;;0.20;0.20;;;;;;;14.68;65.72;100518.94;5191193;28;20112;-81
2022/09/16 00:44:53;;;;;;;0.20;0.20;;;;;;;14.72;65.71;100523.13;5126849;28;20031;-82
2022/09/16 00:47:40;;;;;;;0.30;0.30;;;;;;;14.62;65.75;100531.47;5193286;28;20046;-81
2022/09/16 00:50:16;;;;;;;0.60;0.60;;;;;;;14.58;65.52;100523.75;5153949;28;20399;-82
2022/09/16 00:52:48;;;;;;;0.93;0.90;;;;;;;14.64;65.81;100526.09;5174370;28;20039;-83
2022/09/16 00:55:24;;;;;;;0.30;0.30;;;;;;;14.64;65.73;100519.03;5209774;28;20090;-85
2022/09/16 00:58:01;;;;;;;1.30;1.17;;;;;;;14.56;65.56;100521.16;5198064;28;20089;-80
2022/09/16 01:00:37;;;;;;;2.85;2.63;;;;;;;14.58;65.70;100516.69;5136153;28;20380;-80
2022/09/16 01:03:08;;;;;;;1.20;0.40;;;;;;;14.60;66.00;100520.13;5186299;28;20049;-81
2022/09/16 01:05:38;;;;;;;0.28;0.28;;;;;;;14.58;65.64;100523.75;5172519;28;20026;-82
2022/09/16 01:08:09;;;;;;;0.52;0.52;;;;;;;14.45;66.66;100516.41;5173546;28;20030;-80
2022/09/16 01:10:41;;;;;;;0.55;0.55;;;;;;;14.46;66.39;100527.84;5152208;28;20042;-81
2022/09/16 01:13:14;;;;;;;0.65;0.40;;;;;;;14.52;66.00;100519.63;5171745;28;20037;-81
2022/09/16 01:15:48;;;;;;;0.93;0.93;;;;;;;14.50;65.92;100523.25;5199782;28;20758;-83
2022/09/16 01:18:51;;;;;;;0.30;0.30;;;;;;;14.52;66.06;100516.09;5154645;28;20035;-82
2022/09/16 01:21:34;;;;;;;0.30;0.30;;;;;;;14.38;67.63;100524.69;5150931;28;20030;-82
2022/09/16 01:24:43;;;;;;;0.20;0.20;;;;;;;14.41;67.30;100511.34;5171450;28;20057;-81
2022/09/16 01:27:58;;;;;;;0.52;0.52;;;;;;;14.51;66.46;100514.38;5136675;28;20047;-83
2022/09/16 01:30:29;;;;;;;0.60;0.60;;;;;;;14.34;69.06;100510.75;5120535;28;20125;-84
2022/09/16 01:33:38;;;;;;;0.80;0.68;;;;;;;14.31;68.47;100518.84;5144365;28;20129;-84
2022/09/16 01:36:37;;;;;;;0.43;0.43;;;;;;;14.31;67.61;100517.03;5131705;28;20035;-81
2022/09/16 01:39:24;;;;;;;2.30;1.20;;;;;;;14.40;67.86;100514.91;5171222;28;20138;-82
2022/09/16 01:41:58;;;;;;;0.20;0.20;;;;;;;14.44;67.40;100509.41;5169812;28;20137;-82
2022/09/16 01:45:12;;;;;;;;;;;;;;;;;;;;;
2022/09/16 01:48:08;;;;;;;0.25;0.25;;;;;;;14.39;68.74;100507.91;5199328;28;20070;-82
2022/09/16 01:50:51;;;;;;;0.30;0.30;;;;;;;14.32;67.89;100510.84;5187749;28;20030;-81
2022/09/16 01:53:26;;;;;;;0.30;0.30;;;;;;;14.38;68.36;100509.69;5135943;28;20046;-82
2022/09/16 01:56:05;;;;;;;0.20;0.20;;;;;;;14.32;68.31;100510.00;5192579;28;20045;-82
2022/09/16 01:58:52;;;;;;;0.30;0.30;;;;;;;14.31;69.70;100518.84;5156281;28;20133;-82
2022/09/16 02:01:56;;;;;;;0.20;0.20;;;;;;;14.50;68.54;100513.56;5159220;28;20026;-81
2022/09/16 02:04:33;;;;;;;0.30;0.30;;;;;;;14.46;68.99;100507.56;5120254;28;20077;-82
2022/09/16 02:07:08;;;;;;;0.52;0.52;;;;;;;14.39;69.41;100513.19;5151497;28;20559;-82
2022/09/16 02:09:47;;;;;;;0.88;0.80;;;;;;;14.29;70.30;100518.03;5150225;28;20031;-84
2022/09/16 02:12:23;;;;;;;0.70;0.70;;;;;;;14.37;69.52;100502.69;5173987;28;20046;-81
2022/09/16 02:14:59;;;;;;;0.30;0.30;;;;;;;14.31;70.62;100508.28;5158007;28;20144;-84
2022/09/16 02:17:33;;;;;;;0.70;0.70;;;;;;;14.32;70.54;100496.78;5145747;28;20070;-81
2022/09/16 02:20:11;;;;;;;0.88;0.85;;;;;;;14.27;69.79;100502.28;5137265;28;20081;-81
2022/09/16 02:22:53;;;;;;;0.20;0.20;;;;;;;14.21;71.02;100496.41;5152002;28;20038;-81
2022/09/16 02:25:27;;;;;;;0.30;0.30;;;;;;;14.25;70.23;100501.50;5155343;28;20463;-82
2022/09/16 02:28:00;;;;;;;1.27;0.55;;;;;;;14.18;70.86;100497.41;5144612;28;20042;-81
2022/09/16 02:30:31;;;;;;;0.98;0.55;;;;;;;14.20;70.94;100499.97;5169207;28;20062;-81
2022/09/16 02:33:10;;;;;;;0.20;0.20;;;;;;;14.13;70.86;100492.34;5173273;28;20043;-81
2022/09/16 02:35:46;;;;;;;0.30;0.30;;;;;;;14.19;69.97;100498.25;5167720;28;20373;-80
2022/09/16 02:38:23;;;;;;;0.30;0.30;;;;;;;14.28;70.37;100503.13;5155282;28;20513;-81
2022/09/16 02:40:57;;;;;;;0.68;0.68;;;;;;;14.23;70.64;100498.06;5158131;28;20396;-82
2022/09/16 02:43:29;;;;;;;0.43;0.43;;;;;;;14.28;70.42;100492.56;5180673;28;20378;-82
2022/09/16 02:46:20;;;;;;;0.43;0.40;;;;;;;14.25;70.84;100488.28;5204249;28;20034;-81
2022/09/16 02:49:36;;;;;;;0.70;0.70;;;;;;;14.15;71.21;100489.63;5171826;28;20034;-84
2022/09/16 02:52:22;;;;;;;0.45;0.45;;;;;;;13.97;72.97;100488.69;5143953;28;20093;-81
2022/09/16 02:54:53;;;;;;;0.30;0.30;;;;;;;13.85;73.89;100480.41;5192585;28;20109;-81
2022/09/16 02:57:24;;;;;;;0.20;0.20;;;;;;;13.89;73.23;100486.41;5176929;28;20118;-81
2022/09/16 02:59:55;;;;;;;0.47;0.47;;;;;;;13.73;74.19;100483.59;5161877;28;20042;-83
2022/09/16 03:02:39;;;;;;;1.08;0.95;;;;;;;13.89;72.69;100485.56;5175453;28;20431;-84
2022/09/16 03:05:17;;;;;;;2.03;1.23;;;;;;;13.98;71.49;100493.06;5161559;28;20050;-81
2022/09/16 03:07:51;;;;;;;0.40;0.40;;;;;;;14.04;71.29;100489.28;5181930;28;20062;-82
2022/09/16 03:10:42;;;;;;;1.00;0.77;;;;;;;14.01;71.40;100484.97;5167262;28;20166;-81
2022/09/16 03:13:42;;;;;;;0.20;0.20;;;;;;;14.12;70.87;100488.00;5143591;28;20041;-80
2022/09/16 03:16:33;;;;;;;0.30;0.30;;;;;;;14.08;71.20;100483.81;5206721;28;20034;-81
2022/09/16 03:19:27;;;;;;;0.60;0.60;;;;;;;14.06;71.70;100484.78;5167489;28;20042;-82
2022/09/16 03:22:10;;;;;;;0.20;0.20;;;;;;;14.04;71.73;100489.28;5159436;28;20077;-81
2022/09/16 03:24:50;;;;;;;0.40;0.40;;;;;;;14.00;71.35;100493.84;5212061;28;20470;-84
2022/09/16 03:27:46;;;;;;;0.50;0.50;;;;;;;14.08;70.51;100488.22;5157570;28;20162;-82
2022/09/16 03:30:18;;;;;;;0.30;0.30;;;;;;;14.08;70.32;100486.44;5194646;28;20387;-83
2022/09/16 03:32:53;;;;;;;0.30;0.30;;;;;;;14.04;71.46;100482.22;5192420;28;20050;-81
2022/09/16 03:35:44;;;;;;;0.57;0.57;;;;;;;14.04;70.42;100482.22;5173617;28;20035;-82
2022/09/16 03:38:17;;;;;;;0.30;0.30;;;;;;;14.01;70.32;100488.50;5170234;28;20034;-82
2022/09/16 03:40:48;;;;;;;0.45;0.45;;;;;;;14.04;70.31;100484.84;5167630;28;20026;-83
2022/09/16 03:43:19;;;;;;;4.03;1.20;;;;;;;14.03;70.31;100484.94;5156688;28;20298;-81
2022/09/16 03:45:50;;;;;;;0.60;0.60;;;;;;;14.07;70.08;100482.09;5140434;28;20047;-81
2022/09/16 03:48:21;;;;;;;0.30;0.30;;;;;;;13.99;70.09;100484.22;5167202;28;20590;-81
2022/09/16 03:50:51;;;;;;;4.95;1.23;;;;;;;13.89;70.46;100477.63;5178238;28;20097;-82
2022/09/16 03:53:22;;;;;;;0.35;0.35;;;;;;;13.88;70.68;100470.66;5175580;28;20073;-81
2022/09/16 03:55:52;;;;;;;0.47;0.47;;;;;;;13.93;70.11;100479.19;5130477;28;20129;-82
2022/09/16 03:58:23;;;;;;;1.17;0.55;;;;;;;13.91;70.01;100474.00;5135540;28;20097;-82
2022/09/16 04:00:53;;;;;;;0.20;0.20;;;;;;;13.83;70.71;100477.00;5168385;28;20602;-81
2022/09/16 04:03:24;;;;;;;0.50;0.50;;;;;;;13.90;70.01;100477.56;5169833;28;20038;-81
2022/09/16 04:05:55;;;;;;;1.00;0.75;;;;;;;13.88;70.25;100460.09;5159009;28;20540;-81
2022/09/16 04:08:26;;;;;;;0.30;0.30;;;;;;;13.82;70.51;100451.56;5172338;28;20036;-81
2022/09/16 04:11:06;;;;;;;0.35;0.35;;;;;;;13.87;69.79;100461.03;5175750;28;20034;-82
2022/09/16 04:13:39;;;;;;;0.20;0.20;;;;;;;13.80;70.22;100457.81;5159638;28;20077;-81
2022/09/16 04:16:10;;;;;;;0.40;0.30;;;;;;;13.78;69.71;100465.78;5183086;28;20049;-80
2022/09/16 04:18:41;;;;;;;4.55;0.82;;;;;;;13.82;69.97;100463.84;5171038;28;20048;-82
2022/09/16 04:21:12;;;;;;;0.82;0.82;;;;;;;13.82;70.26;100459.47;5159762;28;20034;-81
2022/09/16 04:23:43;;;;;;;1.30;1.10;;;;;;;13.72;70.48;100463.44;5177053;28;20039;-82
2022/09/16 04:26:14;;;;;;;0.55;0.55;;;;;;;13.80;69.91;100455.19;5176434;28;20038;-80
2022/09/16 04:28:46;;;;;;;0.45;0.45;;;;;;;13.66;70.20;100458.44;5161396;28;20023;-81
2022/09/16 04:31:17;;;;;;;2.95;0.93;;;;;;;13.81;69.79;100456.88;5153233;28;20026;-81
2022/09/16 04:33:48;;;;;;;0.30;0.30;;;;;;;13.70;69.95;100460.00;5168582;28;20033;-81
2022/09/16 04:36:19;;;;;;;4.28;1.52;;;;;;;13.58;70.98;100455.28;5203066;28;20419;-81
2022/09/16 04:38:49;;;;;;;0.30;0.30;;;;;;;13.48;70.59;100463.59;5154289;28;20031;-81
2022/09/16 04:41:22;;;;;;;0.20;0.20;;;;;;;13.67;69.89;100461.00;5157484;28;20037;-81
2022/09/16 04:43:56;;;;;;;0.38;0.38;;;;;;;13.61;70.43;100463.91;5156394;28;20042;-81
2022/09/16 04:46:31;;;;;;;0.20;0.20;;;;;;;13.50;70.32;100458.22;5212107;28;20263;-84
2022/09/16 04:49:02;;;;;;;2.08;1.98;;;;;;;13.60;69.97;100453.41;5155634;28;20039;-81
2022/09/16 04:51:40;;;;;;;0.50;0.50;;;;;;;13.65;69.69;100459.34;5186251;28;20049;-81
2022/09/16 04:54:13;;;;;;;0.50;0.50;;;;;;;13.58;69.59;100455.28;5128801;28;20034;-80
2022/09/16 04:56:59;;;;;;;0.47;0.47;;;;;;;13.49;70.00;100465.31;5168108;28;20120;-83
2022/09/16 04:59:29;;;;;;;0.57;0.43;;;;;;;13.40;70.47;100462.19;5172435;28;20033;-81
2022/09/16 05:02:02;;;;;;;0.20;0.20;;;;;;;13.49;70.14;100467.94;5157629;28;20242;-83
2022/09/16 05:04:53;;;;;;;0.28;0.28;;;;;;;13.49;70.14;100444.22;5204548;28;20041;-81
2022/09/16 05:07:24;;;;;;;0.47;0.38;;;;;;;13.46;69.71;100457.50;5198773;28;20102;-81
2022/09/16 05:09:55;;;;;;;0.20;0.20;;;;;;;13.58;69.41;100457.91;5179856;28;20093;-81
2022/09/16 05:12:25;;;;;;;1.25;0.95;;;;;;;13.40;69.88;100457.78;5158179;28;20049;-81
2022/09/16 05:14:56;;;;;;;0.30;0.30;;;;;;;13.48;69.66;100446.91;5155536;28;20022;-82
2022/09/16 05:17:30;;;;;;;0.20;0.20;;;;;;;13.47;69.44;100453.13;5189981;28;20080;-80
2022/09/16 05:20:13;;;;;;;0.50;0.50;;;;;;;13.52;68.99;100462.50;5129723;28;20033;-83
2022/09/16 05:22:43;;;;;;;0.35;0.35;;;;;;;13.52;69.18;100462.50;5174566;28;20088;-81
2022/09/16 05:25:14;;;;;;;0.20;0.20;;;;;;;13.39;69.23;100466.59;5194656;28;20132;-81
2022/09/16 05:27:47;;;;;;;0.20;0.20;;;;;;;13.42;69.28;100461.22;5203756;28;20443;-80
2022/09/16 05:30:17;;;;;;;0.30;0.30;;;;;;;13.50;68.98;100471.41;5155940;28;20087;-80
2022/09/16 05:32:53;;;;;;;0.60;0.60;;;;;;;13.34;69.79;100465.94;5158801;28;20667;-81
2022/09/16 05:35:27;;;;;;;0.10;0.10;;;;;;;13.37;69.34;100468.41;5171646;28;20105;-81
2022/09/16 05:38:07;;;;;;;0.63;0.52;;;;;;;13.35;69.20;100475.53;5128632;28;20049;-81
2022/09/16 05:40:43;;;;;;;0.20;0.20;;;;;;;13.40;69.37;100478.00;5158521;28;20038;-82
2022/09/16 05:43:16;;;;;;;0.45;0.35;;;;;;;13.43;69.00;100475.25;5178514;28;20045;-81
2022/09/16 05:45:51;;;;;;;0.30;0.30;;;;;;;13.49;69.17;100467.06;5160977;28;20018;-81
2022/09/16 05:48:22;;;;;;;0.30;0.30;;;;;;;13.48;68.90;100476.75;5200459;28;20034;-81
2022/09/16 05:51:16;;;;;;;0.57;0.57;;;;;;;13.40;69.38;100472.72;5172854;28;20042;-81
2022/09/16 05:53:54;;;;;;;0.20;0.20;;;;;;;13.30;69.76;100472.25;5149928;28;20058;-81
2022/09/16 05:56:28;;;;;;;0.40;0.40;;;;;;;13.47;69.20;100468.94;5173666;28;20112;-81
2022/09/16 05:59:00;;;;;;;1.70;0.70;;;;;;;13.43;69.59;100477.88;5163859;28;20117;-81
2022/09/16 06:01:41;;;;;;;0.40;0.40;;;;;;;13.41;69.52;100472.69;5173736;28;20439;-81
2022/09/16 06:04:13;;;;;;;0.52;0.52;;;;;;;13.47;69.13;100475.03;5178536;28;20041;-81
2022/09/16 06:06:45;;;;;;;1.80;1.08;;;;;;;13.54;69.09;100476.50;5158370;28;20802;-81
2022/09/16 06:09:19;;;;;;;0.20;0.20;;;;;;;13.44;69.50;100485.69;5194593;28;20022;-81
2022/09/16 06:11:52;;;;;;;0.40;0.40;;;;;;;13.51;69.22;100479.25;5184283;28;20084;-81
2022/09/16 06:14:23;;;;;;;0.20;0.20;;;;;;;13.65;68.54;100472.53;5159062;28;20113;-82
2022/09/16 06:16:56;;;;;;;0.40;0.40;;;;;;;13.47;69.40;100480.31;5189665;28;20038;-82
2022/09/16 06:19:29;;;;;;;0.30;0.30;;;;;;;13.60;68.89;100490.31;5123902;28;20034;-82
2022/09/16 06:22:09;;;;;;;0.25;0.25;;;;;;;13.61;68.83;100486.75;5161096;28;20454;-82
2022/09/16 06:24:40;;;;;;;0.65;0.55;;;;;;;13.49;69.43;100489.03;5172150;28;20026;-82
2022/09/16 06:27:11;;;;;;;0.25;0.25;;;;;;;13.51;69.62;100488.94;5144059;28;20113;-82
2022/09/16 06:29:41;;;;;;;0.30;0.30;;;;;;;13.36;69.88;100486.03;5154090;28;20046;-82
2022/09/16 06:32:12;;;;;;;5.57;0.95;;;;;;;13.40;69.81;100478.88;5158153;28;20606;-82
2022/09/16 06:34:43;;;;;;;0.47;0.47;;;;;;;13.46;69.39;100477.75;5217224;28;20110;-82
2022/09/16 06:37:13;;;;;;;0.20;0.20;;;;;;;13.48;69.37;100482.03;5185508;28;20038;-82
2022/09/16 06:39:44;;;;;;;0.20;0.20;;;;;;;13.59;69.20;100484.19;5161730;28;20066;-81
2022/09/16 06:42:15;;;;;;;0.20;0.20;;;;;;;13.45;69.61;100476.88;5164224;28;20035;-82
2022/09/16 06:44:45;;;;;;;0.30;0.30;;;;;;;13.41;69.95;100482.34;5148371;28;20073;-82
2022/09/16 06:47:16;;;;;;;0.73;0.73;;;;;;;13.54;69.46;100481.75;5189720;28;20031;-81
2022/09/16 06:49:46;;;;;;;1.08;0.75;;;;;;;13.53;69.89;100482.69;5190188;28;20492;-82
2022/09/16 06:52:18;;;;;;;1.45;0.82;;;;;;;13.58;69.76;100481.63;5177642;28;20050;-81
2022/09/16 06:54:49;;;;;;;0.30;0.30;;;;;;;13.68;69.69;100478.53;5163412;28;20045;-81
2022/09/16 06:57:22;;;;;;;0.20;0.20;;;;;;;13.73;69.15;100480.09;5190696;28;20045;-81
2022/09/16 06:59:58;;;;;;;0.20;0.20;;;;;;;13.65;69.70;100483.91;5212424;23;21179;-84
2022/09/16 07:02:32;;;;;;;0.20;0.20;;;;;;;13.71;69.64;100477.53;5155685;28;20092;-83
2022/09/16 07:05:05;;;;;;;0.68;0.68;;;;;;;13.71;69.34;100480.16;5174689;28;20126;-83
2022/09/16 07:07:42;;;;;;;0.30;0.30;;;;;;;13.79;69.14;100483.31;5133645;28;20039;-84
2022/09/16 07:10:13;;;;;;;0.43;0.43;;;;;;;13.79;69.36;100485.97;5115555;28;20098;-84
2022/09/16 07:12:43;;;;;;;0.60;0.60;;;;;;;13.88;69.13;100483.84;5149368;28;20791;-84
2022/09/16 07:15:14;;;;;;;0.20;0.20;;;;;;;13.96;68.85;100495.78;5139812;28;20506;-83
2022/09/16 07:17:54;;;;;;;0.52;0.52;;;;;;;13.89;69.14;100488.19;5152461;28;20047;-81
2022/09/16 07:20:28;;;;;;;0.20;0.20;;;;;;;13.87;69.04;100484.75;5133922;28;20034;-83
2022/09/16 07:22:59;;;;;;;0.22;0.22;;;;;;;13.95;68.65;100490.53;5146917;28;20052;-82
2022/09/16 07:25:34;;;;;;;0.20;0.20;;;;;;;13.82;69.62;100493.75;5140611;28;20038;-82
2022/09/16 07:28:04;;;;;;;0.20;0.20;;;;;;;13.90;69.22;100487.28;5130900;28;20050;-83
2022/09/16 07:30:36;;;;;;;0.40;0.40;;;;;;;13.99;68.42;100497.41;5135268;28;20038;-82
2022/09/16 07:33:18;;;;;;;0.63;0.63;;;;;;;14.05;68.67;100497.13;5137180;28;20043;-83
2022/09/16 07:36:22;;;;;;;;;;;;;;;;;;;;;
2022/09/16 07:38:57;;;;;;;1.20;1.13;;;;;;;14.02;68.44;100502.53;5125465;28;20061;-83
2022/09/16 07:41:32;;;;;;;0.28;0.28;;;;;;;13.80;69.61;100506.13;5124005;28;20515;-82
2022/09/16 07:44:12;;;;;;;0.30;0.30;;;;;;;13.85;69.56;100501.50;5132322;28;20039;-83
2022/09/16 07:46:49;;;;;;;1.40;0.80;;;;;;;13.77;69.80;100498.34;5157974;28;20038;-83
2022/09/16 07:49:20;;;;;;;1.23;0.50;;;;;;;13.91;69.68;100499.53;5134941;28;20034;-83
2022/09/16 07:51:53;;;;;;;1.35;0.63;;;;;;;13.98;69.14;100508.88;5121926;28;20060;-81
2022/09/16 07:54:26;;;;;;;0.20;0.20;;;;;;;14.07;68.61;100511.09;5084988;28;20090;-83
2022/09/16 07:57:00;;;;;;;0.50;0.50;;;;;;;14.14;69.08;100507.25;5130963;28;20474;-83
2022/09/16 07:59:30;;;;;;;0.25;0.25;;;;;;;14.14;68.85;100516.94;5124622;28;20026;-81
2022/09/16 08:02:04;;;;;;;0.25;0.25;;;;;;;13.95;69.13;100516.91;5142285;28;20525;-82
2022/09/16 08:04:35;;;;;;;0.20;0.20;;;;;;;14.02;68.91;100515.72;5121323;28;20089;-82
2022/09/16 08:07:15;;;;;;;0.40;0.40;;;;;;;14.13;68.28;100520.53;5147414;28;20473;-82
2022/09/16 08:10:08;;;;;;;0.25;0.25;;;;;;;13.99;68.59;100514.06;5121363;28;20038;-82
2022/09/16 08:12:39;;;;;;;0.50;0.50;;;;;;;14.11;68.36;100523.22;5116569;28;20105;-81
2022/09/16 08:15:10;;;;;;;0.20;0.20;;;;;;;14.12;68.35;100524.94;5118187;28;20039;-81
2022/09/16 08:17:43;;;;;;;0.40;0.40;;;;;;;14.24;68.01;100531.44;5118261;28;20166;-82
2022/09/16 08:20:13;;;;;;;10.40;0.73;;;;;;;14.22;67.63;100532.44;5103609;28;20386;-81
2022/09/16 08:22:44;;;;;;;0.50;0.50;;;;;;;14.31;67.76;100539.94;5117782;28;20703;-82
2022/09/16 08:25:14;;;;;;;0.90;0.73;;;;;;;14.26;67.71;100541.91;5131114;28;20089;-82
2022/09/16 08:27:48;;;;;;;0.20;0.20;;;;;;;14.35;67.46;100538.84;5115642;28;20034;-82
2022/09/16 08:30:19;;;;;;;0.25;0.25;;;;;;;14.22;67.97;100535.06;5132313;28;20062;-81
2022/09/16 08:32:58;;;;;;;0.50;0.50;;;;;;;14.28;67.88;100534.78;5119487;28;20481;-81
2022/09/16 08:35:32;;;;;;;0.28;0.28;;;;;;;14.45;67.49;100537.50;5121239;28;20442;-82
2022/09/16 08:38:03;;;;;;;7.38;1.65;;;;;;;14.38;68.21;100540.53;5147017;28;20137;-82
2022/09/16 08:40:35;;;;;;;0.65;0.47;;;;;;;14.45;67.72;100537.50;5116339;28;20039;-82
2022/09/16 08:43:14;;;;;;;0.20;0.20;;;;;;;14.46;67.99;100541.88;5117832;28;20047;-80
2022/09/16 08:45:59;;;;;;;0.20;0.20;;;;;;;14.53;68.24;100544.22;5116440;28;20587;-81
2022/09/16 08:48:57;;;;;;;0.20;0.20;;;;;;;14.66;67.23;100534.84;5136504;28;20054;-81
2022/09/16 08:51:28;;;;;;;0.20;0.20;;;;;;;14.67;66.46;100546.25;5150338;28;20065;-82
2022/09/16 08:54:02;;;;;;;9.52;1.17;;;;;;;14.71;66.65;100543.41;5101024;28;20059;-82
2022/09/16 08:56:36;;;;;;;0.75;0.75;;;;;;;14.69;65.94;100539.97;5136150;28;20038;-83
2022/09/16 08:59:15;;;;;;;3.50;0.75;;;;;;;14.71;65.86;100534.63;5147246;28;20044;-82
2022/09/16 09:02:21;;;;;;;0.52;0.52;;;;;;;14.71;66.14;100537.28;5127715;28;20038;-82
2022/09/16 09:04:52;;;;;;;0.20;0.20;;;;;;;14.71;66.64;100548.69;5093021;28;20074;-82
2022/09/16 09:08:08;;;;;;;0.80;0.80;;;;;;;14.79;66.48;100548.34;5106737;28;20098;-81
2022/09/16 09:11:09;;;;;;;1.38;1.27;;;;;;;14.83;66.05;100551.69;5115771;28;20038;-81
2022/09/16 09:14:24;;;;;;;0.20;0.20;;;;;;;14.88;65.66;100549.66;5129014;28;20032;-81
2022/09/16 09:17:35;;;;;;;0.95;0.60;;;;;;;14.91;65.38;100549.53;5121854;28;20561;-82
2022/09/16 09:20:34;;;;;;;0.20;0.20;;;;;;;15.02;65.26;100554.28;5111989;28;20340;-82
2022/09/16 09:23:36;;;;;;;0.20;0.20;;;;;;;15.02;64.91;100551.66;5134277;28;20039;-80
2022/09/16 09:26:20;;;;;;;1.67;0.40;;;;;;;15.01;65.31;100556.06;5098568;28;20611;-81
2022/09/16 09:29:29;;;;;;;0.28;0.28;;;;;;;14.84;64.44;100550.72;5129930;28;20041;-81
2022/09/16 09:32:18;;;;;;;0.20;0.20;;;;;;;14.91;64.38;100553.00;5115727;28;20049;-81
2022/09/16 09:35:08;;;;;;;12.18;2.10;;;;;;;14.75;62.70;100550.22;5118924;28;20116;-80
2022/09/16 09:38:08;;;;;;;0.30;0.30;;;;;;;14.99;63.80;100546.50;5135851;28;20103;-80
2022/09/16 09:40:51;;;;;;;0.85;0.85;;;;;;;15.01;64.24;100553.41;5147295;28;20035;-80
2022/09/16 09:43:32;;;;;;;0.20;0.20;;;;;;;14.99;64.22;100546.50;5158216;28;20038;-80
2022/09/16 09:46:09;;;;;;;0.20;0.20;;;;;;;15.09;64.56;100545.97;5129251;28;20030;-80
2022/09/16 09:48:53;;;;;;;0.47;0.47;;;;;;;15.18;64.21;100541.16;5125893;28;20028;-80
2022/09/16 09:51:33;;;;;;;0.20;0.20;;;;;;;15.23;64.48;100541.81;5173297;28;20029;-80
2022/09/16 09:54:30;;;;;;;0.20;0.20;;;;;;;15.20;63.60;100544.59;5166564;28;20039;-83
2022/09/16 09:57:21;;;;;;;0.20;0.20;;;;;;;15.25;62.97;100538.16;5136488;28;20111;-81
2022/09/16 10:00:11;;;;;;;0.20;0.20;;;;;;;15.37;63.61;100541.97;5141976;28;20031;-81
2022/09/16 10:02:46;;;;;;;11.40;0.90;;;;;;;15.24;62.64;100530.31;5155518;28;20058;-81
2022/09/16 10:05:27;;;;;;;0.20;0.20;;;;;;;15.37;62.99;100531.41;5158045;28;20037;-80
2022/09/16 10:08:03;;;;;;;0.52;0.52;;;;;;;15.34;63.16;100528.06;5139146;28;20035;-83
2022/09/16 10:10:43;;;;;;;8.48;0.73;;;;;;;15.43;63.19;100531.09;5117475;28;20109;-83
2022/09/16 10:13:15;;;;;;;0.20;0.20;;;;;;;15.35;61.80;100521.84;5146595;28;20073;-83
2022/09/16 10:15:47;;;;;;;;;;;;;;;15.32;62.14;100525.50;5120763;28;20061;-81
2022/09/16 10:18:31;;;;;;;1.08;0.90;;;;;;;15.40;62.30;100519.81;5118988;28;19976;-82
2022/09/16 10:21:15;;;;;;;0.40;0.40;;;;;;;15.31;61.59;100531.72;5119320;28;20093;-82
2022/09/16 10:23:54;;;;;;;1.02;1.00;;;;;;;15.37;62.28;100520.00;5133752;28;20194;-82
2022/09/16 10:26:27;;;;;;;0.28;0.28;;;;;;;15.28;61.36;100521.28;5117287;28;20034;-82
2022/09/16 10:29:12;;;;;;;0.40;0.40;;;;;;;15.18;61.94;100525.31;5119538;28;20042;-82
2022/09/16 10:31:43;;;;;;;0.20;0.20;;;;;;;15.31;62.64;100523.78;5119012;28;20027;-82
2022/09/16 10:34:16;;;;;;;0.20;0.20;;;;;;;15.38;62.54;100519.91;5134665;28;20046;-82
2022/09/16 10:36:57;;;;;;;;;;;;;;;15.49;63.03;100513.22;5116038;28;20154;-81
2022/09/16 10:39:32;;;;;;;0.30;0.30;;;;;;;15.49;61.79;100510.56;5136916;28;20399;-82
2022/09/16 10:42:05;;;;;;;0.20;0.20;;;;;;;15.50;59.83;100515.78;5100088;28;20070;-82
2022/09/16 10:44:36;;;;;;;0.52;0.52;;;;;;;15.58;59.90;100515.38;5136601;28;20034;-82
2022/09/16 10:47:21;;;;;;;0.20;0.20;;;;;;;15.61;59.13;100517.88;5117552;28;20042;-82
2022/09/16 10:50:03;;;;;;;0.20;0.20;;;;;;;15.49;57.76;100513.22;5149800;28;20231;-82
2022/09/16 10:52:46;;;;;;;0.10;0.10;;;;;;;15.54;59.60;100511.19;5118601;28;20039;-82
2022/09/16 10:55:26;;;;;;;0.25;0.25;;;;;;;15.62;58.92;100513.44;5135766;28;20129;-82
2022/09/16 10:58:16;;;;;;;0.60;0.60;;;;;;;15.70;59.54;100512.09;5133117;28;20133;-81
2022/09/16 11:01:13;;;;;;;0.20;0.20;;;;;;;15.82;59.92;100499.19;5132715;28;20026;-83
2022/09/16 11:04:08;;;;;;;0.47;0.47;;;;;;;15.84;59.57;100495.56;5124648;28;20071;-81
2022/09/16 11:06:41;;;;;;;0.20;0.20;;;;;;;15.84;58.56;100502.63;5124492;28;20037;-82
2022/09/16 11:09:37;;;;;;;0.38;0.38;;;;;;;15.90;59.41;100489.09;5121994;28;20200;-82
2022/09/16 11:12:31;;;;;;;0.22;0.22;;;;;;;15.93;57.41;100488.91;5130195;28;20074;-81
2022/09/16 11:15:23;;;;;;;1.45;0.55;;;;;;;16.03;55.75;100490.13;5129354;28;20468;-81
2022/09/16 11:18:38;;;;;;;0.20;0.20;;;;;;;16.13;56.74;100486.97;5110315;28;20447;-82
2022/09/16 11:21:26;;;;;;;0.20;0.20;;;;;;;16.21;56.20;100493.56;5145290;28;20088;-82
2022/09/16 11:24:34;;;;;;;0.20;0.20;;;;;;;16.38;55.73;100496.25;5137671;28;20047;-82
2022/09/16 11:27:27;;;;;;;0.28;0.28;;;;;;;16.42;55.09;100503.94;5136729;28;20466;-83
2022/09/16 11:30:18;;;;;;;0.30;0.30;;;;;;;16.44;55.24;100490.59;5120925;28;20407;-82
2022/09/16 11:33:19;;;;;;;0.30;0.30;;;;;;;16.53;55.75;100504.16;5117426;28;20058;-81
2022/09/16 11:35:58;;;;;;;0.20;0.20;;;;;;;16.64;55.95;100503.59;5136514;28;20173;-80
2022/09/16 11:38:54;;;;;;;0.20;0.20;;;;;;;16.59;55.48;100513.56;5135250;28;20045;-81
2022/09/16 11:41:39;;;;;;;0.20;0.20;;;;;;;16.72;55.87;100518.19;5119413;28;20447;-81
2022/09/16 11:44:14;;;;;;;0.30;0.30;;;;;;;16.70;54.91;100525.38;5121699;28;20113;-80
2022/09/16 11:47:03;;;;;;;0.30;0.30;;;;;;;16.50;53.59;100564.41;5153208;28;20054;-81
2022/09/16 11:49:54;;;;;;;0.20;0.20;;;;;;;15.76;59.14;100553.25;5150625;28;20031;-81
2022/09/16 11:52:43;;;;;;;0.30;0.30;;;;;;;15.97;59.74;100563.69;5138137;28;20739;-81
2022/09/16 11:55:39;;;;;;;0.30;0.30;;;;;;;16.23;60.00;100567.63;5122158;28;20035;-82
2022/09/16 11:58:31;;;;;;;0.35;0.32;;;;;;;15.61;62.46;100573.41;5133078;28;20070;-82
2022/09/16 12:01:20;;;;;;;1.10;0.68;;;;;;;15.82;62.24;100567.97;5134741;28;20041;-82
2022/09/16 12:03:58;;;;;;;0.20;0.20;;;;;;;15.62;62.67;100576.91;5125641;28;20043;-81
2022/09/16 12:06:56;;;;;;;0.40;0.40;;;;;;;15.88;61.96;100567.66;5145578;28;20019;-81
2022/09/16 12:09:53;;;;;;;0.20;0.20;;;;;;;15.68;62.05;100569.50;5128397;28;20517;-82
2022/09/16 12:12:32;;;;;;;0.32;0.32;;;;;;;15.88;61.70;100562.38;5100318;28;20100;-82
2022/09/16 12:15:16;;;;;;;0.65;0.65;;;;;;;15.95;61.70;100555.00;5148017;28;20122;-81
2022/09/16 12:18:11;;;;;;;0.20;0.20;;;;;;;15.84;62.63;100566.09;5108250;28;20049;-82
2022/09/16 12:21:05;;;;;;;0.25;0.25;;;;;;;15.19;65.10;100561.38;5137356;28;20224;-82
2022/09/16 12:23:44;;;;;;;0.20;0.20;;;;;;;15.42;63.49;100562.91;5147972;28;20043;-82
2022/09/16 12:26:23;;;;;;;0.20;0.20;;;;;;;15.45;63.72;100575.09;5130213;28;20035;-83